sensor_id;sensor_type;location;lat;lon;timestamp;pressure;altitude;pressure_sealevel;temperature;humidity
76352;BME280;65179;47.786;19.138;2023-01-19T00:01:45;98793.06;;;4.40;92.44
76352;BME280;65179;47.786;19.138;2023-01-19T00:04:11;98798.63;;;4.45;92.41
76352;BME280;65179;47.786;19.138;2023-01-19T00:06:37;98791.59;;;4.44;92.50
76352;BME280;65179;47.786;19.138;2023-01-19T00:09:02;98784.72;;;4.48;92.54
76352;BME280;65179;47.786;19.138;2023-01-19T00:11:27;98781.06;;;4.43;92.64
76352;BME280;65179;47.786;19.138;2023-01-19T00:13:53;98775.47;;;4.44;92.51
76352;BME280;65179;47.786;19.138;2023-01-19T00:16:19;98778.38;;;4.43;92.52
76352;BME280;65179;47.786;19.138;2023-01-19T00:18:47;98773.59;;;4.45;92.69
76352;BME280;65179;47.786;19.138;2023-01-19T00:21:14;98791.88;;;4.36;93.03
76352;BME280;65179;47.786;19.138;2023-01-19T00:23:40;98780.75;;;4.33;92.03
76352;BME280;65179;47.786;19.138;2023-01-19T00:26:06;98778.25;;;4.31;91.84
76352;BME280;65179;47.786;19.138;2023-01-19T00:28:33;98771.06;;;4.25;91.57
76352;BME280;65179;47.786;19.138;2023-01-19T00:30:59;98779.38;;;4.24;91.49
76352;BME280;65179;47.786;19.138;2023-01-19T00:33:24;98781.66;;;4.20;91.44
76352;BME280;65179;47.786;19.138;2023-01-19T00:35:51;98782.72;;;4.19;91.27
76352;BME280;65179;47.786;19.138;2023-01-19T00:38:17;98792.84;;;4.17;91.43
76352;BME280;65179;47.786;19.138;2023-01-19T00:40:43;98788.13;;;4.13;91.45
76352;BME280;65179;47.786;19.138;2023-01-19T00:43:08;98781.37;;;4.04;91.99
76352;BME280;65179;47.786;19.138;2023-01-19T00:45:34;98785.16;;;3.96;91.77
76352;BME280;65179;47.786;19.138;2023-01-19T00:47:59;98789.66;;;4.02;91.72
76352;BME280;65179;47.786;19.138;2023-01-19T00:50:26;98788.44;;;3.98;91.20
76352;BME280;65179;47.786;19.138;2023-01-19T00:52:54;98783.50;;;3.95;91.12
76352;BME280;65179;47.786;19.138;2023-01-19T00:55:20;98781.22;;;3.92;91.51
76352;BME280;65179;47.786;19.138;2023-01-19T00:57:45;98788.09;;;3.88;91.85
76352;BME280;65179;47.786;19.138;2023-01-19T01:00:13;98776.91;;;3.91;91.90
76352;BME280;65179;47.786;19.138;2023-01-19T01:02:41;98781.63;;;3.96;91.67
76352;BME280;65179;47.786;19.138;2023-01-19T01:05:07;98781.03;;;3.94;91.78
76352;BME280;65179;47.786;19.138;2023-01-19T01:07:33;98783.72;;;3.94;91.56
76352;BME280;65179;47.786;19.138;2023-01-19T01:10:22;98786.00;;;3.90;91.49
76352;BME280;65179;47.786;19.138;2023-01-19T01:12:48;98779.38;;;3.93;91.47
76352;BME280;65179;47.786;19.138;2023-01-19T01:15:15;98771.53;;;3.91;91.37
76352;BME280;65179;47.786;19.138;2023-01-19T01:17:42;98769.47;;;3.93;91.07
76352;BME280;65179;47.786;19.138;2023-01-19T01:20:20;98760.81;;;3.91;91.00
76352;BME280;65179;47.786;19.138;2023-01-19T01:22:48;98765.78;;;3.88;91.20
76352;BME280;65179;47.786;19.138;2023-01-19T01:25:16;98759.59;;;3.87;91.06
76352;BME280;65179;47.786;19.138;2023-01-19T01:27:42;98750.72;;;3.87;91.13
76352;BME280;65179;47.786;19.138;2023-01-19T01:30:10;98756.91;;;3.87;91.17
76352;BME280;65179;47.786;19.138;2023-01-19T01:32:36;98760.81;;;3.91;91.14
76352;BME280;65179;47.786;19.138;2023-01-19T01:35:02;98750.47;;;3.88;91.18
76352;BME280;65179;47.786;19.138;2023-01-19T01:37:28;98748.84;;;3.87;91.39
76352;BME280;65179;47.786;19.138;2023-01-19T01:39:53;98748.44;;;3.83;91.46
76352;BME280;65179;47.786;19.138;2023-01-19T01:42:23;98753.22;;;3.81;91.06
76352;BME280;65179;47.786;19.138;2023-01-19T01:44:52;98749.72;;;3.81;91.05
76352;BME280;65179;47.786;19.138;2023-01-19T01:49:53;98757.81;;;3.74;91.83
76352;BME280;65179;47.786;19.138;2023-01-19T01:52:21;98750.16;;;3.78;91.60
76352;BME280;65179;47.786;19.138;2023-01-19T01:54:49;98749.81;;;3.68;92.11
76352;BME280;65179;47.786;19.138;2023-01-19T01:57:17;98750.63;;;3.68;91.98
76352;BME280;65179;47.786;19.138;2023-01-19T01:59:46;98757.59;;;3.76;91.74
76352;BME280;65179;47.786;19.138;2023-01-19T02:02:22;98762.12;;;3.75;91.72
76352;BME280;65179;47.786;19.138;2023-01-19T02:05:14;98768.75;;;3.73;91.72
76352;BME280;65179;47.786;19.138;2023-01-19T02:10:34;98784.13;;;3.59;91.69
76352;BME280;65179;47.786;19.138;2023-01-19T02:13:19;98791.38;;;3.59;91.53
76352;BME280;65179;47.786;19.138;2023-01-19T02:15:49;98794.91;;;3.53;91.73
76352;BME280;65179;47.786;19.138;2023-01-19T02:18:16;98792.88;;;3.48;91.54
76352;BME280;65179;47.786;19.138;2023-01-19T02:20:46;98804.41;;;3.49;91.52
76352;BME280;65179;47.786;19.138;2023-01-19T02:23:26;98803.97;;;3.52;91.37
76352;BME280;65179;47.786;19.138;2023-01-19T02:25:54;98810.56;;;3.56;91.47
76352;BME280;65179;47.786;19.138;2023-01-19T02:28:20;98800.50;;;3.45;91.26
76352;BME280;65179;47.786;19.138;2023-01-19T02:30:45;98781.09;;;3.43;90.89
76352;BME280;65179;47.786;19.138;2023-01-19T02:33:11;98754.88;;;3.45;91.08
76352;BME280;65179;47.786;19.138;2023-01-19T02:35:37;98746.50;;;3.28;91.14
76352;BME280;65179;47.786;19.138;2023-01-19T02:38:05;98770.62;;;3.35;91.29
76352;BME280;65179;47.786;19.138;2023-01-19T02:40:32;98771.44;;;3.42;91.40
76352;BME280;65179;47.786;19.138;2023-01-19T02:42:58;98778.94;;;3.27;91.60
76352;BME280;65179;47.786;19.138;2023-01-19T02:45:25;98789.44;;;3.28;91.76
76352;BME280;65179;47.786;19.138;2023-01-19T02:47:51;98791.28;;;3.28;91.40
76352;BME280;65179;47.786;19.138;2023-01-19T02:50:39;98787.13;;;3.32;91.39
76352;BME280;65179;47.786;19.138;2023-01-19T03:04:16;98763.66;;;3.21;91.33
76352;BME280;65179;47.786;19.138;2023-01-19T03:06:48;98764.47;;;3.28;91.62
76352;BME280;65179;47.786;19.138;2023-01-19T03:11:52;98771.03;;;3.32;91.44
76352;BME280;65179;47.786;19.138;2023-01-19T03:14:22;98769.41;;;3.31;91.48
76352;BME280;65179;47.786;19.138;2023-01-19T03:16:55;98784.06;;;3.28;91.68
76352;BME280;65179;47.786;19.138;2023-01-19T03:19:30;98786.50;;;3.36;91.50
76352;BME280;65179;47.786;19.138;2023-01-19T03:22:01;98785.50;;;3.31;91.37
76352;BME280;65179;47.786;19.138;2023-01-19T03:24:31;98779.09;;;3.32;91.06
76352;BME280;65179;47.786;19.138;2023-01-19T03:27:26;98779.97;;;3.19;90.52
76352;BME280;65179;47.786;19.138;2023-01-19T03:29:59;98799.34;;;3.28;90.46
76352;BME280;65179;47.786;19.138;2023-01-19T03:32:34;98815.25;;;3.23;90.47
76352;BME280;65179;47.786;19.138;2023-01-19T03:35:04;98829.53;;;3.03;90.89
76352;BME280;65179;47.786;19.138;2023-01-19T03:37:35;98832.81;;;3.05;90.92
76352;BME280;65179;47.786;19.138;2023-01-19T03:40:02;98823.12;;;3.04;91.04
76352;BME280;65179;47.786;19.138;2023-01-19T03:42:28;98800.44;;;3.07;90.84
76352;BME280;65179;47.786;19.138;2023-01-19T03:44:55;98771.34;;;3.04;91.00
76352;BME280;65179;47.786;19.138;2023-01-19T03:47:22;98765.16;;;3.03;90.88
76352;BME280;65179;47.786;19.138;2023-01-19T03:49:49;98749.28;;;3.08;90.84
76352;BME280;65179;47.786;19.138;2023-01-19T03:52:16;98725.34;;;3.07;90.68
76352;BME280;65179;47.786;19.138;2023-01-19T03:54:41;98706.78;;;3.05;90.73
76352;BME280;65179;47.786;19.138;2023-01-19T03:57:08;98710.75;;;3.03;90.91
76352;BME280;65179;47.786;19.138;2023-01-19T03:59:34;98715.88;;;3.04;90.86
76352;BME280;65179;47.786;19.138;2023-01-19T04:01:59;98723.09;;;3.04;91.00
76352;BME280;65179;47.786;19.138;2023-01-19T04:04:25;98731.75;;;3.06;90.51
76352;BME280;65179;47.786;19.138;2023-01-19T04:06:50;98744.94;;;3.07;90.76
76352;BME280;65179;47.786;19.138;2023-01-19T04:09:16;98750.72;;;3.04;90.03
76352;BME280;65179;47.786;19.138;2023-01-19T04:11:41;98750.94;;;3.10;89.94
76352;BME280;65179;47.786;19.138;2023-01-19T04:14:07;98778.16;;;3.06;90.00
76352;BME280;65179;47.786;19.138;2023-01-19T04:16:32;98784.78;;;2.97;89.72
76352;BME280;65179;47.786;19.138;2023-01-19T04:18:58;98799.25;;;2.96;90.40
76352;BME280;65179;47.786;19.138;2023-01-19T04:21:23;98784.41;;;2.94;90.16
76352;BME280;65179;47.786;19.138;2023-01-19T04:23:49;98767.69;;;2.98;90.33
76352;BME280;65179;47.786;19.138;2023-01-19T04:26:14;98764.56;;;2.95;90.58
76352;BME280;65179;47.786;19.138;2023-01-19T04:28:40;98768.69;;;2.97;90.76
76352;BME280;65179;47.786;19.138;2023-01-19T04:31:06;98770.34;;;2.98;90.54
76352;BME280;65179;47.786;19.138;2023-01-19T04:33:32;98757.00;;;2.85;90.73
76352;BME280;65179;47.786;19.138;2023-01-19T04:35:58;98760.09;;;2.82;90.79
76352;BME280;65179;47.786;19.138;2023-01-19T04:38:24;98755.09;;;2.86;90.81
76352;BME280;65179;47.786;19.138;2023-01-19T04:40:50;98749.13;;;2.90;90.96
76352;BME280;65179;47.786;19.138;2023-01-19T04:43:18;98754.53;;;2.77;90.86
76352;BME280;65179;47.786;19.138;2023-01-19T04:45:45;98749.78;;;2.79;90.94
76352;BME280;65179;47.786;19.138;2023-01-19T04:48:11;98758.84;;;2.85;90.88
76352;BME280;65179;47.786;19.138;2023-01-19T04:50:37;98763.81;;;2.81;91.18
76352;BME280;65179;47.786;19.138;2023-01-19T04:53:02;98755.16;;;2.79;91.13
76352;BME280;65179;47.786;19.138;2023-01-19T04:55:28;98746.91;;;2.74;91.25
76352;BME280;65179;47.786;19.138;2023-01-19T04:57:53;98733.50;;;2.74;91.47
76352;BME280;65179;47.786;19.138;2023-01-19T05:00:19;98732.69;;;2.74;91.58
76352;BME280;65179;47.786;19.138;2023-01-19T05:02:46;98734.97;;;2.70;91.71
76352;BME280;65179;47.786;19.138;2023-01-19T05:05:11;98725.28;;;2.69;92.01
76352;BME280;65179;47.786;19.138;2023-01-19T05:07:38;98736.00;;;2.69;92.10
76352;BME280;65179;47.786;19.138;2023-01-19T05:10:04;98741.97;;;2.71;92.11
76352;BME280;65179;47.786;19.138;2023-01-19T05:12:30;98735.78;;;2.71;92.22
76352;BME280;65179;47.786;19.138;2023-01-19T05:14:56;98747.16;;;2.66;92.26
76352;BME280;65179;47.786;19.138;2023-01-19T05:17:21;98756.81;;;2.67;92.25
76352;BME280;65179;47.786;19.138;2023-01-19T05:19:46;98770.62;;;2.71;92.21
76352;BME280;65179;47.786;19.138;2023-01-19T05:22:13;98776.63;;;2.73;92.04
76352;BME280;65179;47.786;19.138;2023-01-19T05:24:39;98780.72;;;2.75;92.20
76352;BME280;65179;47.786;19.138;2023-01-19T05:27:05;98772.50;;;2.70;92.40
76352;BME280;65179;47.786;19.138;2023-01-19T05:29:30;98774.75;;;2.67;92.45
76352;BME280;65179;47.786;19.138;2023-01-19T05:31:55;98784.25;;;2.63;92.27
76352;BME280;65179;47.786;19.138;2023-01-19T05:34:22;98788.38;;;2.59;92.26
76352;BME280;65179;47.786;19.138;2023-01-19T05:36:47;98796.63;;;2.64;92.36
76352;BME280;65179;47.786;19.138;2023-01-19T05:39:13;98788.78;;;2.62;92.44
76352;BME280;65179;47.786;19.138;2023-01-19T05:41:38;98795.56;;;2.58;92.61
76352;BME280;65179;47.786;19.138;2023-01-19T05:44:04;98800.94;;;2.58;92.61
76352;BME280;65179;47.786;19.138;2023-01-19T05:46:29;98791.88;;;2.59;92.74
76352;BME280;65179;47.786;19.138;2023-01-19T05:48:55;98804.22;;;2.67;92.83
76352;BME280;65179;47.786;19.138;2023-01-19T05:51:20;98808.38;;;2.56;93.14
76352;BME280;65179;47.786;19.138;2023-01-19T05:53:45;98814.56;;;2.50;93.47
76352;BME280;65179;47.786;19.138;2023-01-19T05:56:11;98814.97;;;2.47;93.70
76352;BME280;65179;47.786;19.138;2023-01-19T05:58:37;98814.97;;;2.47;93.77
76352;BME280;65179;47.786;19.138;2023-01-19T06:01:08;98804.25;;;2.54;93.86
76352;BME280;65179;47.786;19.138;2023-01-19T06:03:35;98801.78;;;2.52;94.04
76352;BME280;65179;47.786;19.138;2023-01-19T06:06:02;98802.59;;;2.46;94.12
76352;BME280;65179;47.786;19.138;2023-01-19T06:08:28;98797.47;;;2.38;94.56
76352;BME280;65179;47.786;19.138;2023-01-19T06:10:53;98795.59;;;2.32;94.59
76352;BME280;65179;47.786;19.138;2023-01-19T06:13:18;98790.06;;;2.40;94.58
76352;BME280;65179;47.786;19.138;2023-01-19T06:15:44;98766.13;;;2.45;94.50
76352;BME280;65179;47.786;19.138;2023-01-19T06:18:11;98753.34;;;2.47;94.31
76352;BME280;65179;47.786;19.138;2023-01-19T06:20:37;98760.59;;;2.40;94.26
76352;BME280;65179;47.786;19.138;2023-01-19T06:23:02;98770.25;;;2.41;94.33
76352;BME280;65179;47.786;19.138;2023-01-19T06:25:28;98771.47;;;2.45;94.34
76352;BME280;65179;47.786;19.138;2023-01-19T06:27:55;98755.62;;;2.50;94.22
76352;BME280;65179;47.786;19.138;2023-01-19T06:30:20;98741.81;;;2.53;94.03
76352;BME280;65179;47.786;19.138;2023-01-19T06:32:46;98744.50;;;2.53;94.00
76352;BME280;65179;47.786;19.138;2023-01-19T06:35:12;98759.31;;;2.49;93.83
76352;BME280;65179;47.786;19.138;2023-01-19T06:37:38;98764.66;;;2.49;94.08
76352;BME280;65179;47.786;19.138;2023-01-19T06:40:04;98771.28;;;2.53;94.05
76352;BME280;65179;47.786;19.138;2023-01-19T06:42:29;98745.28;;;2.54;94.04
76352;BME280;65179;47.786;19.138;2023-01-19T06:44:55;98742.59;;;2.60;93.95
76352;BME280;65179;47.786;19.138;2023-01-19T06:47:20;98738.28;;;2.59;93.97
76352;BME280;65179;47.786;19.138;2023-01-19T06:49:46;98751.69;;;2.59;94.05
76352;BME280;65179;47.786;19.138;2023-01-19T06:52:12;98756.63;;;2.62;94.03
76352;BME280;65179;47.786;19.138;2023-01-19T06:54:42;98765.09;;;2.59;93.93
76352;BME280;65179;47.786;19.138;2023-01-19T06:57:08;98779.09;;;2.61;93.99
76352;BME280;65179;47.786;19.138;2023-01-19T06:59:36;98775.38;;;2.62;94.06
76352;BME280;65179;47.786;19.138;2023-01-19T07:02:01;98776.81;;;2.65;93.94
76352;BME280;65179;47.786;19.138;2023-01-19T07:04:27;98792.50;;;2.68;93.92
76352;BME280;65179;47.786;19.138;2023-01-19T07:06:52;98793.94;;;2.70;93.91
76352;BME280;65179;47.786;19.138;2023-01-19T07:09:18;98787.94;;;2.75;93.95
76352;BME280;65179;47.786;19.138;2023-01-19T07:11:45;98798.44;;;2.76;93.88
76352;BME280;65179;47.786;19.138;2023-01-19T07:14:11;98787.31;;;2.79;93.90
76352;BME280;65179;47.786;19.138;2023-01-19T07:16:36;98792.25;;;2.82;93.79
76352;BME280;65179;47.786;19.138;2023-01-19T07:19:02;98788.53;;;2.83;93.75
76352;BME280;65179;47.786;19.138;2023-01-19T07:21:27;98790.41;;;2.83;93.76
76352;BME280;65179;47.786;19.138;2023-01-19T07:23:53;98783.19;;;2.83;93.66
76352;BME280;65179;47.786;19.138;2023-01-19T07:26:18;98783.19;;;2.83;93.70
76352;BME280;65179;47.786;19.138;2023-01-19T07:28:47;98768.72;;;2.84;93.62
76352;BME280;65179;47.786;19.138;2023-01-19T07:31:13;98755.72;;;2.94;93.75
76352;BME280;65179;47.786;19.138;2023-01-19T07:33:39;98758.22;;;2.89;93.48
76352;BME280;65179;47.786;19.138;2023-01-19T07:36:05;98783.56;;;2.93;93.45
76352;BME280;65179;47.786;19.138;2023-01-19T07:38:30;98791.59;;;2.93;93.60
76352;BME280;65179;47.786;19.138;2023-01-19T07:41:04;98800.47;;;2.94;93.66
76352;BME280;65179;47.786;19.138;2023-01-19T07:43:31;98809.53;;;2.93;93.77
76352;BME280;65179;47.786;19.138;2023-01-19T07:46:02;98796.34;;;2.91;93.90
76352;BME280;65179;47.786;19.138;2023-01-19T07:48:28;98801.72;;;2.91;93.90
76352;BME280;65179;47.786;19.138;2023-01-19T07:51:02;98789.94;;;2.92;94.01
76352;BME280;65179;47.786;19.138;2023-01-19T07:53:33;98797.56;;;2.95;93.87
76352;BME280;65179;47.786;19.138;2023-01-19T07:55:58;98798.41;;;2.96;93.87
76352;BME280;65179;47.786;19.138;2023-01-19T07:58:24;98795.72;;;2.96;93.99
76352;BME280;65179;47.786;19.138;2023-01-19T08:00:50;98795.50;;;2.97;94.02
76352;BME280;65179;47.786;19.138;2023-01-19T08:03:16;98794.50;;;2.98;93.99
76352;BME280;65179;47.786;19.138;2023-01-19T08:05:43;98800.88;;;2.97;94.14
76352;BME280;65179;47.786;19.138;2023-01-19T08:08:09;98809.34;;;3.01;94.25
76352;BME280;65179;47.786;19.138;2023-01-19T08:10:36;98812.81;;;3.01;94.35
76352;BME280;65179;47.786;19.138;2023-01-19T08:13:02;98819.84;;;3.02;94.45
76352;BME280;65179;47.786;19.138;2023-01-19T08:15:27;98810.97;;;3.02;94.58
76352;BME280;65179;47.786;19.138;2023-01-19T08:17:58;98810.34;;;3.06;94.45
76352;BME280;65179;47.786;19.138;2023-01-19T08:20:25;98808.69;;;3.05;94.39
76352;BME280;65179;47.786;19.138;2023-01-19T08:22:51;98801.69;;;3.04;94.23
76352;BME280;65179;47.786;19.138;2023-01-19T08:25:25;98812.41;;;3.04;94.26
76352;BME280;65179;47.786;19.138;2023-01-19T08:27:53;98805.19;;;3.05;94.29
76352;BME280;65179;47.786;19.138;2023-01-19T08:30:18;98807.66;;;3.06;94.31
76352;BME280;65179;47.786;19.138;2023-01-19T08:32:44;98813.63;;;3.08;94.40
76352;BME280;65179;47.786;19.138;2023-01-19T08:35:10;98802.91;;;3.08;94.45
76352;BME280;65179;47.786;19.138;2023-01-19T08:37:35;98816.09;;;3.10;94.40
76352;BME280;65179;47.786;19.138;2023-01-19T08:40:01;98807.62;;;3.13;94.44
76352;BME280;65179;47.786;19.138;2023-01-19T08:42:26;98796.91;;;3.13;94.47
76352;BME280;65179;47.786;19.138;2023-01-19T08:44:52;98800.44;;;3.14;94.50
76352;BME280;65179;47.786;19.138;2023-01-19T08:47:17;98798.34;;;3.16;94.41
76352;BME280;65179;47.786;19.138;2023-01-19T08:49:43;98793.00;;;3.16;94.49
76352;BME280;65179;47.786;19.138;2023-01-19T08:52:08;98782.88;;;3.18;94.62
76352;BME280;65179;47.786;19.138;2023-01-19T08:54:34;98789.25;;;3.17;94.80
76352;BME280;65179;47.786;19.138;2023-01-19T08:57:00;98796.66;;;3.21;94.78
76352;BME280;65179;47.786;19.138;2023-01-19T08:59:25;98798.13;;;3.24;94.77
76352;BME280;65179;47.786;19.138;2023-01-19T09:01:51;98804.09;;;3.26;94.83
76352;BME280;65179;47.786;19.138;2023-01-19T09:04:16;98807.38;;;3.28;94.77
76352;BME280;65179;47.786;19.138;2023-01-19T09:06:42;98812.75;;;3.28;94.74
76352;BME280;65179;47.786;19.138;2023-01-19T09:09:07;98808.81;;;3.30;94.75
76352;BME280;65179;47.786;19.138;2023-01-19T09:11:32;98816.66;;;3.32;94.79
76352;BME280;65179;47.786;19.138;2023-01-19T09:13:59;98814.56;;;3.34;94.72
76352;BME280;65179;47.786;19.138;2023-01-19T09:16:24;98817.25;;;3.34;94.81
76352;BME280;65179;47.786;19.138;2023-01-19T09:18:51;98801.16;;;3.34;94.80
76352;BME280;65179;47.786;19.138;2023-01-19T09:21:17;98802.81;;;3.35;94.74
76352;BME280;65179;47.786;19.138;2023-01-19T09:23:46;98811.69;;;3.35;94.78
76352;BME280;65179;47.786;19.138;2023-01-19T09:26:13;98802.59;;;3.36;94.78
76352;BME280;65179;47.786;19.138;2023-01-19T09:28:39;98800.34;;;3.40;94.81
76352;BME280;65179;47.786;19.138;2023-01-19T09:31:06;98796.00;;;3.39;94.88
76352;BME280;65179;47.786;19.138;2023-01-19T09:33:31;98794.97;;;3.40;94.92
76352;BME280;65179;47.786;19.138;2023-01-19T09:35:57;98797.44;;;3.41;94.89
76352;BME280;65179;47.786;19.138;2023-01-19T09:38:23;98798.25;;;3.42;94.95
76352;BME280;65179;47.786;19.138;2023-01-19T09:40:55;98803.03;;;3.40;94.91
76352;BME280;65179;47.786;19.138;2023-01-19T09:43:32;98803.63;;;3.42;94.95
76352;BME280;65179;47.786;19.138;2023-01-19T09:46:21;98802.56;;;3.43;95.03
76352;BME280;65179;47.786;19.138;2023-01-19T09:48:54;98799.88;;;3.43;95.12
76352;BME280;65179;47.786;19.138;2023-01-19T09:51:28;98788.75;;;3.46;95.16
76352;BME280;65179;47.786;19.138;2023-01-19T09:54:15;98801.09;;;3.47;95.23
76352;BME280;65179;47.786;19.138;2023-01-19T09:56:42;98792.03;;;3.48;95.15
76352;BME280;65179;47.786;19.138;2023-01-19T09:59:28;98799.03;;;3.49;95.26
76352;BME280;65179;47.786;19.138;2023-01-19T10:02:15;98798.00;;;3.50;95.29
76352;BME280;65179;47.786;19.138;2023-01-19T10:10:22;98788.09;;;3.50;95.09
76352;BME280;65179;47.786;19.138;2023-01-19T10:18:24;98779.81;;;3.52;95.02
76352;BME280;65179;47.786;19.138;2023-01-19T10:21:02;98793.03;;;3.53;95.06
76352;BME280;65179;47.786;19.138;2023-01-19T10:23:35;98789.53;;;3.53;95.08
76352;BME280;65179;47.786;19.138;2023-01-19T10:29:30;98800.88;;;3.55;95.04
76352;BME280;65179;47.786;19.138;2023-01-19T10:32:21;98802.34;;;3.51;95.18
76352;BME280;65179;47.786;19.138;2023-01-19T10:34:48;98812.25;;;3.50;95.13
76352;BME280;65179;47.786;19.138;2023-01-19T10:42:44;98807.91;;;3.49;94.76
76352;BME280;65179;47.786;19.138;2023-01-19T10:45:18;98815.12;;;3.49;94.61
76352;BME280;65179;47.786;19.138;2023-01-19T10:47:48;98813.50;;;3.48;94.68
76352;BME280;65179;47.786;19.138;2023-01-19T10:50:31;98805.44;;;3.48;94.41
76352;BME280;65179;47.786;19.138;2023-01-19T10:53:02;98803.59;;;3.48;94.50
76352;BME280;65179;47.786;19.138;2023-01-19T10:55:34;98812.63;;;3.54;94.47
76352;BME280;65179;47.786;19.138;2023-01-19T10:58:02;98806.66;;;3.52;94.26
76352;BME280;65179;47.786;19.138;2023-01-19T11:00:32;98803.59;;;3.48;94.28
76352;BME280;65179;47.786;19.138;2023-01-19T11:02:59;98809.75;;;3.49;94.45
76352;BME280;65179;47.786;19.138;2023-01-19T11:05:29;98809.97;;;3.47;94.61
76352;BME280;65179;47.786;19.138;2023-01-19T11:07:55;98813.91;;;3.45;94.71
76352;BME280;65179;47.786;19.138;2023-01-19T11:10:24;98815.56;;;3.46;94.70
76352;BME280;65179;47.786;19.138;2023-01-19T11:15:24;98819.72;;;3.42;94.44
76352;BME280;65179;47.786;19.138;2023-01-19T11:17:52;98819.91;;;3.40;94.46
76352;BME280;65179;47.786;19.138;2023-01-19T11:20:31;98814.16;;;3.37;94.53
76352;BME280;65179;47.786;19.138;2023-01-19T11:23:16;98824.91;;;3.37;94.19
76352;BME280;65179;47.786;19.138;2023-01-19T11:25:48;98828.41;;;3.37;94.20
76352;BME280;65179;47.786;19.138;2023-01-19T11:31:15;98833.34;;;3.34;93.84
76352;BME280;65179;47.786;19.138;2023-01-19T11:38:52;98835.66;;;3.30;94.18
76352;BME280;65179;47.786;19.138;2023-01-19T11:43:52;98836.28;;;3.26;93.97
76352;BME280;65179;47.786;19.138;2023-01-19T11:46:20;98840.00;;;3.25;93.98
76352;BME280;65179;47.786;19.138;2023-01-19T11:48:54;98843.72;;;3.24;94.23
76352;BME280;65179;47.786;19.138;2023-01-19T11:51:29;98841.44;;;3.21;94.50
76352;BME280;65179;47.786;19.138;2023-01-19T11:54:01;98840.81;;;3.19;94.12
76352;BME280;65179;47.786;19.138;2023-01-19T11:56:29;98845.78;;;3.22;93.87
76352;BME280;65179;47.786;19.138;2023-01-19T11:58:55;98840.81;;;3.19;93.89
76352;BME280;65179;47.786;19.138;2023-01-19T12:06:39;98848.25;;;3.17;92.96
76352;BME280;65179;47.786;19.138;2023-01-19T12:11:36;98863.56;;;3.16;92.77
76352;BME280;65179;47.786;19.138;2023-01-19T12:14:09;98857.37;;;3.16;92.95
76352;BME280;65179;47.786;19.138;2023-01-19T12:16:39;98864.34;;;3.17;93.00
76352;BME280;65179;47.786;19.138;2023-01-19T12:19:14;98857.37;;;3.16;93.00
76352;BME280;65179;47.786;19.138;2023-01-19T12:21:41;98864.34;;;3.17;93.09
76352;BME280;65179;47.786;19.138;2023-01-19T12:24:21;98866.63;;;3.20;93.00
76352;BME280;65179;47.786;19.138;2023-01-19T12:26:52;98870.53;;;3.24;93.05
76352;BME280;65179;47.786;19.138;2023-01-19T12:29:20;98874.28;;;3.23;92.86
76352;BME280;65179;47.786;19.138;2023-01-19T12:34:55;98880.84;;;3.27;92.87
76352;BME280;65179;47.786;19.138;2023-01-19T12:37:41;98882.50;;;3.28;92.98
76352;BME280;65179;47.786;19.138;2023-01-19T12:40:26;98893.66;;;3.31;93.27
76352;BME280;65179;47.786;19.138;2023-01-19T12:42:58;98886.00;;;3.35;93.49
76352;BME280;65179;47.786;19.138;2023-01-19T12:45:30;98888.47;;;3.36;93.53
76352;BME280;65179;47.786;19.138;2023-01-19T12:47:58;98897.13;;;3.38;93.62
76352;BME280;65179;47.786;19.138;2023-01-19T12:50:24;98894.25;;;3.40;93.97
76352;BME280;65179;47.786;19.138;2023-01-19T12:53:00;98900.22;;;3.42;94.25
76352;BME280;65179;47.786;19.138;2023-01-19T12:55:31;98902.47;;;3.45;94.29
76352;BME280;65179;47.786;19.138;2023-01-19T12:58:05;98897.72;;;3.47;94.26
76352;BME280;65179;47.786;19.138;2023-01-19T13:00:32;98898.31;;;3.49;94.27
76352;BME280;65179;47.786;19.138;2023-01-19T13:03:02;98897.31;;;3.50;94.20
76352;BME280;65179;47.786;19.138;2023-01-19T13:15:50;98917.91;;;3.56;94.51
76352;BME280;65179;47.786;19.138;2023-01-19T13:18:22;98915.22;;;3.56;94.60
76352;BME280;65179;47.786;19.138;2023-01-19T13:20:52;98918.75;;;3.56;94.61
76352;BME280;65179;47.786;19.138;2023-01-19T13:23:22;98922.03;;;3.58;94.62
76352;BME280;65179;47.786;19.138;2023-01-19T13:25:51;98928.25;;;3.59;94.64
76352;BME280;65179;47.786;19.138;2023-01-19T13:28:18;98929.88;;;3.60;94.60
76352;BME280;65179;47.786;19.138;2023-01-19T13:30:54;98940.19;;;3.63;94.71
76352;BME280;65179;47.786;19.138;2023-01-19T13:33:23;98942.28;;;3.61;94.75
76352;BME280;65179;47.786;19.138;2023-01-19T13:35:51;98953.00;;;3.61;94.76
76352;BME280;65179;47.786;19.138;2023-01-19T13:38:18;98962.50;;;3.63;94.82
76352;BME280;65179;47.786;19.138;2023-01-19T13:40:44;98963.31;;;3.64;94.91
76352;BME280;65179;47.786;19.138;2023-01-19T13:43:17;98969.50;;;3.64;95.01
76352;BME280;65179;47.786;19.138;2023-01-19T13:45:48;98974.69;;;3.66;95.09
76352;BME280;65179;47.786;19.138;2023-01-19T13:48:18;98989.75;;;3.67;95.05
76352;BME280;65179;47.786;19.138;2023-01-19T13:50:59;98988.72;;;3.68;95.12
76352;BME280;65179;47.786;19.138;2023-01-19T13:53:25;98996.78;;;3.68;95.20
76352;BME280;65179;47.786;19.138;2023-01-19T13:56:18;99001.31;;;3.67;95.09
76352;BME280;65179;47.786;19.138;2023-01-19T13:58:57;99002.16;;;3.68;95.04
76352;BME280;65179;47.786;19.138;2023-01-19T14:01:23;99013.28;;;3.65;94.98
76352;BME280;65179;47.786;19.138;2023-01-19T14:03:48;99009.59;;;3.66;94.90
76352;BME280;65179;47.786;19.138;2023-01-19T14:06:43;99008.16;;;3.63;94.90
76352;BME280;65179;47.786;19.138;2023-01-19T14:09:16;99017.81;;;3.64;94.87
76352;BME280;65179;47.786;19.138;2023-01-19T14:11:44;99033.75;;;3.59;94.79
76352;BME280;65179;47.786;19.138;2023-01-19T14:14:25;99029.19;;;3.60;94.73
76352;BME280;65179;47.786;19.138;2023-01-19T14:16:50;99030.25;;;3.59;94.61
76352;BME280;65179;47.786;19.138;2023-01-19T14:19:16;99022.38;;;3.57;94.61
76352;BME280;65179;47.786;19.138;2023-01-19T14:21:42;99022.19;;;3.59;94.70